createdAt,value
2018-11-14T00:02:15.131Z,66.57
2018-11-14T00:04:45.943Z,70.07
2018-11-14T00:07:16.862Z,76.07
2018-11-14T00:10:05.435Z,68.60
2018-11-14T00:12:36.706Z,69.67
2018-11-14T00:15:12.789Z,69.57
2018-11-14T00:17:44.975Z,62.30
2018-11-14T00:20:33.814Z,63.93
2018-11-14T00:23:09.176Z,65.33
2018-11-14T00:25:40.502Z,67.70
2018-11-14T00:28:11.588Z,67.47
2018-11-14T00:30:42.723Z,61.00
2018-11-14T00:33:15.131Z,62.20
2018-11-14T00:35:46.958Z,55.37
2018-11-14T00:38:17.445Z,64.27
2018-11-14T00:40:48.664Z,66.70
2018-11-14T00:43:19.354Z,64.50
2018-11-14T00:45:50.091Z,60.40
2018-11-14T00:48:21.449Z,66.70
2018-11-14T00:50:52.160Z,60.40
2018-11-14T00:53:23.051Z,62.47
2018-11-14T00:55:53.829Z,61.90
2018-11-14T00:58:25.150Z,63.73
2018-11-14T01:00:55.880Z,63.37
2018-11-14T01:03:27.204Z,66.67
2018-11-14T01:05:58.021Z,62.70
2018-11-14T01:08:30.550Z,67.47
2018-11-14T01:11:08.427Z,64.63
2018-11-14T01:16:44.925Z,59.57
2018-11-14T01:19:32.517Z,73.93
2018-11-14T01:22:18.196Z,65.50
2018-11-14T01:24:58.977Z,64.23
2018-11-14T01:27:44.909Z,67.90
2018-11-14T01:30:29.409Z,60.90
2018-11-14T01:33:13.704Z,83.63
2018-11-14T01:36:00.976Z,75.30
2018-11-14T01:38:58.736Z,96.33
2018-11-14T01:41:40.233Z,85.50
2018-11-14T01:44:21.652Z,101.60
2018-11-14T01:47:04.786Z,89.53
2018-11-14T01:49:48.523Z,74.27
2018-11-14T01:52:33.694Z,71.73
2018-11-14T01:55:20.117Z,76.67
2018-11-14T01:58:18.272Z,70.07
2018-11-14T02:01:08.906Z,65.97
2018-11-14T02:03:59.460Z,61.80
2018-11-14T02:07:15.232Z,64.70
2018-11-14T02:10:00.903Z,67.83
2018-11-14T02:12:53.727Z,69.93
2018-11-14T02:15:46.008Z,63.53
2018-11-14T02:18:31.250Z,60.80
2018-11-14T02:21:22.325Z,63.57
2018-11-14T02:24:27.419Z,60.73
2018-11-14T02:27:14.309Z,57.17
2018-11-14T02:30:02.616Z,62.80
2018-11-14T02:32:56.098Z,60.33
2018-11-14T02:35:50.394Z,64.23
2018-11-14T02:38:39.445Z,63.40
2018-11-14T02:41:20.516Z,55.87
2018-11-14T02:44:05.672Z,55.27
2018-11-14T02:46:45.431Z,51.07
2018-11-14T02:49:45.582Z,55.57
2018-11-14T02:52:35.322Z,55.60
2018-11-14T02:55:09.535Z,52.87
2018-11-14T02:57:40.407Z,54.07
2018-11-14T03:00:14.558Z,54.83
2018-11-14T03:02:45.389Z,47.87
2018-11-14T03:05:16.111Z,57.80
2018-11-14T03:07:46.833Z,52.03
2018-11-14T03:10:19.832Z,52.60
2018-11-14T03:12:50.615Z,50.93
2018-11-14T03:15:22.577Z,56.77
2018-11-14T03:17:53.882Z,53.47
2018-11-14T03:20:25.734Z,55.77
2018-11-14T03:22:56.697Z,51.50
2018-11-14T03:25:27.494Z,52.37
2018-11-14T03:27:58.345Z,56.90
2018-11-14T03:30:29.369Z,56.73
2018-11-14T03:33:00.277Z,47.30
2018-11-14T03:35:36.026Z,56.43
2018-11-14T03:38:07.945Z,51.13
2018-11-14T03:40:40.109Z,57.07
2018-11-14T03:43:10.869Z,55.80
2018-11-14T03:45:44.625Z,49.57
2018-11-14T03:48:15.387Z,48.03
2018-11-14T03:50:46.498Z,47.97
2018-11-14T03:53:17.475Z,48.77
2018-11-14T03:55:49.178Z,49.93
2018-11-14T03:58:20.099Z,47.27
2018-11-14T04:00:51.130Z,52.07
2018-11-14T04:03:21.886Z,52.33
2018-11-14T04:05:52.714Z,50.97
2018-11-14T04:08:23.761Z,48.63
2018-11-14T04:10:54.806Z,48.80
2018-11-14T04:13:25.541Z,54.67
2018-11-14T04:15:56.696Z,41.33
2018-11-14T04:18:27.389Z,47.00
2018-11-14T04:20:58.105Z,46.40
2018-11-14T04:23:28.874Z,42.40
2018-11-14T04:25:59.548Z,48.97
2018-11-14T04:28:30.260Z,44.10
2018-11-14T04:31:06.001Z,44.27
2018-11-14T04:33:36.918Z,41.20
2018-11-14T04:36:08.419Z,44.43
2018-11-14T04:38:39.757Z,47.60
2018-11-14T04:41:11.083Z,52.03
2018-11-14T04:43:42.055Z,44.17
2018-11-14T04:46:13.214Z,43.33
2018-11-14T04:48:44.959Z,47.50
2018-11-14T04:51:17.188Z,46.03
2018-11-14T04:53:48.217Z,39.77
2018-11-14T04:56:19.569Z,45.37
2018-11-14T04:58:50.329Z,46.77
2018-11-14T05:01:21.026Z,46.43
2018-11-14T05:03:51.702Z,47.33
2018-11-14T05:06:22.916Z,47.83
2018-11-14T05:08:53.693Z,45.97
2018-11-14T05:11:24.760Z,42.13
2018-11-14T05:13:55.684Z,46.27
2018-11-14T05:16:26.590Z,41.47
2018-11-14T05:18:57.522Z,47.00
2018-11-14T05:21:28.300Z,45.80
2018-11-14T05:23:58.949Z,43.87
2018-11-14T05:26:29.745Z,42.47
2018-11-14T05:29:09.021Z,40.60
2018-11-14T05:31:49.010Z,41.43
2018-11-14T05:34:19.694Z,44.23
2018-11-14T05:36:50.914Z,43.83
2018-11-14T05:39:22.588Z,41.67
2018-11-14T05:41:53.425Z,36.67
2018-11-14T05:44:24.482Z,42.37
2018-11-14T05:46:56.288Z,38.67
2018-11-14T05:49:27.322Z,38.33
2018-11-14T05:51:58.771Z,38.43
2018-11-14T05:54:29.659Z,36.40
2018-11-14T05:57:04.944Z,38.30
2018-11-14T05:59:36.445Z,34.70
2018-11-14T06:02:09.252Z,41.40
2018-11-14T06:04:40.494Z,40.70
2018-11-14T06:07:11.867Z,37.43
2018-11-14T06:09:42.557Z,39.47
2018-11-14T06:12:13.814Z,40.93
2018-11-14T06:14:44.584Z,39.20
2018-11-14T06:17:17.168Z,38.83
2018-11-14T06:19:47.950Z,37.83
2018-11-14T06:22:18.690Z,45.57
2018-11-14T06:24:50.885Z,40.47
2018-11-14T06:27:21.631Z,34.63
2018-11-14T06:29:52.495Z,41.07
2018-11-14T06:32:23.313Z,38.27
2018-11-14T06:34:54.258Z,38.37
2018-11-14T06:37:25.628Z,35.63
2018-11-14T06:39:56.549Z,37.80
2018-11-14T06:42:27.425Z,35.90
2018-11-14T06:44:58.643Z,38.00
2018-11-14T06:47:29.418Z,41.47
2018-11-14T06:50:00.400Z,36.63
2018-11-14T06:52:35.736Z,34.63
2018-11-14T06:55:09.193Z,33.43
2018-11-14T06:57:40.235Z,36.47
2018-11-14T07:00:14.725Z,41.17
2018-11-14T07:02:49.093Z,29.87
2018-11-14T07:05:20.292Z,35.30
2018-11-14T07:07:51.148Z,39.00
2018-11-14T07:10:23.573Z,34.53
2018-11-14T07:12:54.508Z,34.60
2018-11-14T07:15:25.304Z,33.53
2018-11-14T07:17:56.049Z,36.07
2018-11-14T07:20:28.322Z,36.40
2018-11-14T07:22:59.092Z,34.63
2018-11-14T07:25:29.925Z,29.70
2018-11-14T07:28:00.740Z,32.47
2018-11-14T07:30:35.089Z,30.47
2018-11-14T07:33:12.661Z,31.90
2018-11-14T07:35:43.376Z,34.70
2018-11-14T07:38:46.787Z,32.03
2018-11-14T07:41:23.813Z,29.87
2018-11-14T07:43:54.852Z,33.83
2018-11-14T07:46:26.687Z,32.93
2018-11-14T07:48:58.360Z,31.17
2018-11-14T07:51:29.335Z,35.63
2018-11-14T07:54:00.339Z,33.53
2018-11-14T07:56:32.944Z,35.80
2018-11-14T07:59:05.590Z,34.63
2018-11-14T08:01:36.838Z,32.43
2018-11-14T08:04:08.076Z,35.23
2018-11-14T08:06:38.853Z,31.63
2018-11-14T08:09:09.731Z,29.97
2018-11-14T08:11:40.480Z,35.00
2018-11-14T08:14:11.395Z,29.63
2018-11-14T08:16:42.170Z,27.83
2018-11-14T08:19:23.000Z,32.37
2018-11-14T08:21:55.313Z,30.33
2018-11-14T08:24:26.393Z,25.97
2018-11-14T08:26:57.260Z,27.67
2018-11-14T08:29:29.269Z,26.80
2018-11-14T08:32:00.079Z,23.93
2018-11-14T08:34:36.357Z,22.63
2018-11-14T08:37:07.242Z,22.60
2018-11-14T08:39:38.815Z,26.60
2018-11-14T08:42:09.885Z,26.83
2018-11-14T08:44:40.670Z,26.30
2018-11-14T08:47:12.171Z,22.80
2018-11-14T08:49:43.036Z,25.67
2018-11-14T08:52:14.351Z,25.37
2018-11-14T08:54:46.604Z,21.93
2018-11-14T08:57:18.637Z,18.70
2018-11-14T08:59:49.973Z,29.87
2018-11-14T09:02:21.078Z,34.67
2018-11-14T09:04:52.105Z,61.15
2018-11-14T09:07:23.484Z,75.95
2018-11-14T09:09:54.603Z,57.95
2018-11-14T09:12:25.595Z,50.75
2018-11-14T09:14:58.655Z,50.65
2018-11-14T09:17:29.654Z,54.33
2018-11-14T09:20:00.676Z,54.93
2018-11-14T09:22:36.868Z,62.53
2018-11-14T09:25:10.369Z,66.67
2018-11-14T09:27:41.698Z,54.20
2018-11-14T09:30:15.353Z,44.93
2018-11-14T09:32:46.177Z,44.53
2018-11-14T09:35:18.443Z,46.73
2018-11-14T09:37:49.473Z,36.23
2018-11-14T09:40:21.716Z,36.17
2018-11-14T09:42:52.509Z,33.40
2018-11-14T09:45:24.537Z,28.27
2018-11-14T09:47:55.514Z,29.55
2018-11-14T09:50:28.587Z,26.07
2018-11-14T09:53:00.977Z,25.92
2018-11-14T09:55:32.884Z,25.32
2018-11-14T09:58:05.340Z,27.50
2018-11-14T10:00:37.095Z,28.85
2018-11-14T10:03:10.716Z,23.42
2018-11-14T10:05:41.692Z,20.80
2018-11-14T10:08:13.419Z,21.52
2018-11-14T10:10:44.194Z,18.87
2018-11-14T10:13:15.518Z,23.60
2018-11-14T10:15:46.378Z,22.42
2018-11-14T10:18:17.580Z,23.22
2018-11-14T10:20:48.352Z,23.92
2018-11-14T10:23:19.036Z,19.05
2018-11-14T10:25:49.777Z,21.70
2018-11-14T10:28:21.388Z,20.23
2018-11-14T10:30:52.491Z,20.62
2018-11-14T10:33:23.996Z,16.37
2018-11-14T10:35:55.826Z,21.40
2018-11-14T10:38:26.608Z,19.62
2018-11-14T10:40:57.565Z,17.05
2018-11-14T10:43:28.321Z,12.23
2018-11-14T10:45:59.550Z,12.85
2018-11-14T10:48:30.586Z,12.07
2018-11-14T10:51:06.323Z,16.45
2018-11-14T10:53:43.712Z,17.85
2018-11-14T10:56:14.497Z,23.25
2018-11-14T10:58:45.190Z,19.00
2018-11-14T11:01:21.013Z,14.23
2018-11-14T11:03:56.698Z,21.55
2018-11-14T11:06:35.522Z,12.20
2018-11-14T11:09:14.823Z,17.32
2018-11-14T11:11:50.509Z,14.68
2018-11-14T11:14:26.247Z,16.05
2018-11-14T11:17:04.980Z,20.77
2018-11-14T11:19:35.830Z,21.37
2018-11-14T11:22:08.262Z,15.40
2018-11-14T11:24:39.014Z,14.10
2018-11-14T11:27:09.740Z,13.83
2018-11-14T11:29:41.213Z,16.62
2018-11-14T11:32:12.293Z,15.75
2018-11-14T11:34:43.042Z,17.48
2018-11-14T11:37:13.978Z,15.13
2018-11-14T11:39:44.801Z,12.58
2018-11-14T11:42:15.802Z,15.70
2018-11-14T11:44:46.859Z,20.00
2018-11-14T11:47:23.818Z,20.35
2018-11-14T11:49:54.610Z,20.55
2018-11-14T11:52:25.392Z,11.83
2018-11-14T11:54:56.129Z,13.70
2018-11-14T11:57:27.436Z,23.25
2018-11-14T11:59:58.219Z,15.60
2018-11-14T12:02:29.012Z,15.90
2018-11-14T12:04:59.788Z,17.60
2018-11-14T12:07:31.301Z,14.68
2018-11-14T12:10:04.821Z,14.43
2018-11-14T12:12:35.657Z,15.72
2018-11-14T12:15:11.282Z,25.72
2018-11-14T12:17:43.240Z,18.60
2018-11-14T12:20:15.052Z,13.08
2018-11-14T12:22:47.450Z,14.85
2018-11-14T12:25:18.764Z,18.55
2018-11-14T12:27:49.553Z,19.37
2018-11-14T12:30:20.382Z,17.30
2018-11-14T12:32:51.096Z,15.30
2018-11-14T12:35:22.093Z,19.82
2018-11-14T12:37:52.981Z,14.23
2018-11-14T12:40:23.676Z,16.15
2018-11-14T12:42:54.970Z,17.35
2018-11-14T12:45:25.738Z,15.25
2018-11-14T12:47:56.540Z,16.48
2018-11-14T12:50:27.368Z,15.53
2018-11-14T12:52:59.337Z,18.90
2018-11-14T12:55:30.133Z,21.27
2018-11-14T12:58:00.841Z,19.37
2018-11-14T13:00:34.793Z,21.90
2018-11-14T13:03:09.068Z,16.87
2018-11-14T13:05:39.820Z,17.35
2018-11-14T13:08:10.848Z,21.35
2018-11-14T13:10:41.658Z,20.15
2018-11-14T13:13:12.442Z,21.07
2018-11-14T13:15:43.837Z,20.60
2018-11-14T13:18:14.897Z,20.12
2018-11-14T13:20:48.781Z,21.42
2018-11-14T13:23:21.066Z,14.70
2018-11-14T13:25:51.872Z,18.90
2018-11-14T13:28:23.655Z,16.20
2018-11-14T13:31:00.275Z,23.15
2018-11-14T13:33:38.027Z,13.15
2018-11-14T13:36:08.889Z,21.15
2018-11-14T13:38:39.817Z,22.82
2018-11-14T13:41:10.697Z,14.87
2018-11-14T13:43:42.485Z,18.12
2018-11-14T13:46:13.295Z,17.70
2018-11-14T13:48:44.119Z,21.77
2018-11-14T13:51:14.981Z,22.20
2018-11-14T13:53:47.134Z,14.07
2018-11-14T13:56:19.282Z,19.67
2018-11-14T13:58:51.193Z,20.95
2018-11-14T14:01:22.072Z,16.75
2018-11-14T14:03:53.852Z,21.77
2018-11-14T14:06:24.743Z,12.95
2018-11-14T14:08:55.524Z,13.72
2018-11-14T14:11:27.009Z,19.10
2018-11-14T14:14:04.028Z,18.45
2018-11-14T14:16:34.828Z,20.70
2018-11-14T14:19:06.666Z,19.02
2018-11-14T14:21:37.672Z,16.95
2018-11-14T14:24:11.780Z,19.87
2018-11-14T14:26:42.604Z,19.10
2018-11-14T14:29:13.373Z,18.70
2018-11-14T14:31:44.151Z,18.02
2018-11-14T14:34:15.007Z,19.20
2018-11-14T14:36:45.762Z,21.02
2018-11-14T14:39:16.532Z,21.42
2018-11-14T14:41:47.334Z,20.90
2018-11-14T14:44:18.808Z,28.00
2018-11-14T14:46:49.563Z,17.02
2018-11-14T14:49:20.333Z,19.98
2018-11-14T14:51:51.187Z,20.88
2018-11-14T14:54:21.955Z,19.20
2018-11-14T14:56:52.794Z,19.90
2018-11-14T14:59:23.575Z,20.00
2018-11-14T15:01:54.362Z,17.45
2018-11-14T15:04:25.100Z,16.15
2018-11-14T15:06:55.826Z,18.32
2018-11-14T15:09:26.640Z,19.25
2018-11-14T15:11:58.115Z,18.05
2018-11-14T15:14:28.956Z,18.75
2018-11-14T15:16:59.663Z,22.52
2018-11-14T15:19:30.684Z,18.10
2018-11-14T15:22:05.234Z,17.20
2018-11-14T15:24:36.074Z,17.98
2018-11-14T15:27:09.138Z,17.77
2018-11-14T15:29:39.913Z,20.05
2018-11-14T15:32:10.801Z,18.05
2018-11-14T15:34:41.662Z,17.82
2018-11-14T15:37:12.579Z,17.75
2018-11-14T15:39:43.484Z,19.60
2018-11-14T15:42:14.349Z,20.95
2018-11-14T15:44:45.118Z,18.87
2018-11-14T15:47:15.968Z,20.52
2018-11-14T15:49:47.027Z,20.12
2018-11-14T15:52:17.900Z,19.07
2018-11-14T15:54:49.940Z,25.60
2018-11-14T15:57:21.818Z,24.00
2018-11-14T15:59:52.816Z,34.20
2018-11-14T16:02:23.662Z,23.60
2018-11-14T16:04:54.446Z,25.68
2018-11-14T16:07:25.313Z,24.10
2018-11-14T16:09:56.117Z,21.70
2018-11-14T16:12:26.954Z,22.77
2018-11-14T16:14:57.727Z,34.67
2018-11-14T16:17:28.612Z,28.57
2018-11-14T16:19:59.301Z,19.65
2018-11-14T16:22:30.288Z,14.95
2018-11-14T16:25:02.313Z,14.18
2018-11-14T16:27:33.082Z,15.38
2018-11-14T16:30:08.917Z,15.75
2018-11-14T16:32:40.001Z,20.55
2018-11-14T16:35:11.204Z,13.28
2018-11-14T16:37:42.399Z,17.12
2018-11-14T16:40:16.144Z,18.40
2018-11-14T16:42:48.182Z,23.73
2018-11-14T16:45:19.090Z,19.02
2018-11-14T16:47:50.010Z,15.75
2018-11-14T16:50:21.612Z,28.60
2018-11-14T16:52:52.539Z,33.05
2018-11-14T16:55:23.611Z,24.80
2018-11-14T16:57:55.643Z,30.57
2018-11-14T17:00:28.272Z,26.35
2018-11-14T17:02:59.566Z,24.05
2018-11-14T17:05:31.471Z,18.05
2018-11-14T17:08:04.707Z,21.27
2018-11-14T17:10:35.601Z,20.68
2018-11-14T17:13:09.075Z,26.68
2018-11-14T17:15:39.834Z,30.17
2018-11-14T17:18:10.612Z,30.80
2018-11-14T17:20:42.326Z,34.65
2018-11-14T17:23:14.072Z,23.90
2018-11-14T17:25:45.529Z,25.75
2018-11-14T17:28:16.316Z,26.40
2018-11-14T17:30:46.980Z,23.98
2018-11-14T17:33:17.779Z,20.08
2018-11-14T17:35:48.574Z,18.35
2018-11-14T17:38:19.239Z,23.85
2018-11-14T17:40:50.058Z,26.68
2018-11-14T17:43:20.704Z,24.10
2018-11-14T17:45:51.382Z,21.45
2018-11-14T17:48:22.093Z,23.35
2018-11-14T17:50:52.772Z,27.48
2018-11-14T17:53:23.492Z,30.82
2018-11-14T17:55:54.113Z,27.00
2018-11-14T17:58:24.922Z,39.13
2018-11-14T18:00:55.939Z,40.88
2018-11-14T18:03:28.153Z,42.17
2018-11-14T18:05:58.840Z,38.42
2018-11-14T18:08:29.482Z,34.80
2018-11-14T18:11:00.153Z,26.12
2018-11-14T18:13:34.927Z,26.70
2018-11-14T18:16:07.281Z,28.85
2018-11-14T18:18:39.265Z,27.05
2018-11-14T18:21:12.101Z,32.30
2018-11-14T18:23:42.939Z,32.95
2018-11-14T18:26:13.684Z,34.38
2018-11-14T18:28:44.425Z,37.23
2018-11-14T18:31:15.210Z,28.12
2018-11-14T18:33:45.854Z,31.97
2018-11-14T18:36:21.145Z,45.45
2018-11-14T18:38:52.200Z,54.48
2018-11-14T18:41:22.892Z,60.08
2018-11-14T18:43:53.624Z,63.38
2018-11-14T18:46:25.025Z,53.48
2018-11-14T18:48:56.060Z,46.90
2018-11-14T18:51:26.864Z,42.83
2018-11-14T18:53:57.993Z,47.78
2018-11-14T18:56:28.777Z,50.10
2018-11-14T18:59:00.400Z,55.75
2018-11-14T19:01:31.923Z,51.70
2018-11-14T19:04:06.508Z,76.77
2018-11-14T19:06:37.423Z,133.35
2018-11-14T19:09:09.424Z,77.05
2018-11-14T19:11:40.397Z,86.00
2018-11-14T19:14:12.079Z,73.57
2018-11-14T19:16:43.310Z,42.38
2018-11-14T19:19:14.155Z,36.15
2018-11-14T19:21:45.865Z,38.17
2018-11-14T19:24:17.164Z,38.08
2018-11-14T19:26:47.986Z,40.73
2018-11-14T19:29:19.299Z,46.05
2018-11-14T19:31:50.032Z,54.38
2018-11-14T19:34:20.743Z,47.03
2018-11-14T19:36:52.121Z,48.65
2018-11-14T19:39:24.157Z,46.88
2018-11-14T19:41:55.705Z,50.48
2018-11-14T19:44:26.630Z,51.85
2018-11-14T19:46:57.546Z,46.70
2018-11-14T19:49:29.274Z,50.60
2018-11-14T19:52:00.038Z,60.08
2018-11-14T19:54:35.816Z,60.43
2018-11-14T19:57:09.857Z,69.85
2018-11-14T19:59:40.830Z,67.00
2018-11-14T20:02:11.972Z,43.25
2018-11-14T20:04:42.809Z,46.02
2018-11-14T20:07:14.318Z,42.08
2018-11-14T20:09:45.139Z,36.08
2018-11-14T20:12:15.824Z,43.63
2018-11-14T20:14:46.782Z,43.55
2018-11-14T20:17:19.029Z,32.93
2018-11-14T20:19:49.704Z,33.45
2018-11-14T20:22:20.700Z,41.00
2018-11-14T20:24:51.444Z,45.58
2018-11-14T20:27:23.548Z,38.67
2018-11-14T20:29:54.454Z,37.65
2018-11-14T20:32:25.563Z,40.05
2018-11-14T20:34:56.216Z,42.50
2018-11-14T20:37:27.668Z,34.95
2018-11-14T20:39:58.378Z,36.53
2018-11-14T20:42:29.087Z,33.38
2018-11-14T20:44:59.796Z,51.80
2018-11-14T20:47:30.673Z,46.58
2018-11-14T20:50:07.098Z,44.00
2018-11-14T20:52:37.852Z,51.58
2018-11-14T20:55:09.895Z,43.10
2018-11-14T20:57:41.374Z,36.00
2018-11-14T21:00:17.707Z,31.97
2018-11-14T21:02:48.593Z,32.75
2018-11-14T21:05:19.645Z,29.95
2018-11-14T21:07:50.738Z,34.60
2018-11-14T21:10:22.694Z,30.50
2018-11-14T21:12:54.072Z,36.03
2018-11-14T21:15:26.262Z,32.70
2018-11-14T21:17:57.868Z,42.93
2018-11-14T21:20:28.932Z,36.80
2018-11-14T21:22:59.727Z,32.50
2018-11-14T21:25:31.319Z,33.78
2018-11-14T21:28:05.398Z,32.98
2018-11-14T21:30:36.479Z,35.08
2018-11-14T21:33:10.008Z,30.57
2018-11-14T21:35:41.091Z,35.28
2018-11-14T21:38:11.948Z,35.75
2018-11-14T21:40:43.557Z,42.53
2018-11-14T21:43:15.169Z,42.93
2018-11-14T21:45:46.839Z,30.10
2018-11-14T21:48:18.864Z,30.57
2018-11-14T21:50:49.946Z,34.63
2018-11-14T21:53:21.662Z,33.75
2018-11-14T21:55:52.441Z,29.82
2018-11-14T21:58:23.189Z,28.75
2018-11-14T22:00:53.907Z,30.17
2018-11-14T22:03:24.656Z,28.98
2018-11-14T22:05:55.333Z,34.27
2018-11-14T22:08:26.267Z,28.87
2018-11-14T22:10:57.033Z,30.23
2018-11-14T22:13:27.804Z,23.18
2018-11-14T22:16:09.309Z,29.20
2018-11-14T22:18:40.058Z,31.07
2018-11-14T22:21:11.544Z,34.88
2018-11-14T22:23:42.200Z,38.70
2018-11-14T22:26:12.926Z,31.45
2018-11-14T22:28:43.733Z,30.25
2018-11-14T22:31:14.609Z,31.07
2018-11-14T22:33:46.050Z,37.20
2018-11-14T22:36:16.848Z,44.58
2018-11-14T22:38:47.688Z,27.77
2018-11-14T22:41:18.420Z,24.90
2018-11-14T22:43:49.659Z,22.42
2018-11-14T22:46:20.392Z,24.72
2018-11-14T22:48:51.218Z,29.77
2018-11-14T22:51:22.312Z,32.10
2018-11-14T22:53:53.011Z,25.27
2018-11-14T22:56:24.712Z,28.40
2018-11-14T22:58:55.400Z,30.62
2018-11-14T23:01:26.120Z,31.77
2018-11-14T23:03:57.737Z,34.10
2018-11-14T23:06:28.461Z,27.70
2018-11-14T23:08:59.132Z,36.23
2018-11-14T23:11:29.884Z,30.65
2018-11-14T23:14:00.700Z,24.43
2018-11-14T23:16:34.834Z,30.20
2018-11-14T23:19:06.884Z,25.30
2018-11-14T23:21:37.537Z,29.07
2018-11-14T23:24:08.593Z,30.27
2018-11-14T23:26:39.579Z,28.20
2018-11-14T23:29:10.254Z,29.25
2018-11-14T23:31:40.938Z,28.20
2018-11-14T23:34:12.734Z,30.57
2018-11-14T23:36:43.393Z,26.48
2018-11-14T23:39:15.607Z,29.10
2018-11-14T23:41:46.345Z,28.27
2018-11-14T23:44:17.018Z,28.20
2018-11-14T23:46:47.719Z,28.35
2018-11-14T23:49:18.400Z,30.95
2018-11-14T23:51:49.160Z,28.55
2018-11-14T23:54:19.818Z,22.45
2018-11-14T23:56:50.529Z,31.20
2018-11-14T23:59:21.225Z,22.27
